Terminal Aerodrome Forecast
Issued by NWS Jackson, MS

Home | Current Version | Previous Version | Text Only | Print | Product List | Glossary On
Versions: 1 2 3 4 5 6 7 8 9 10 11 12 13
549
FTUS44 KJAN 292320
TAFMEI
TAF
KMEI 292320Z 3000/3024 17009KT P6SM SCT250
     FM300400 17010KT P6SM BKN025 BKN250
     FM300730 17009KT P6SM BKN015 BKN250
     FM301100 17007KT P6SM VCSH BKN008 OVC250
     FM301300 18008KT 6SM -SHRA VCTS BKN015CB OVC250
     FM301500 20013KT 6SM SHRA BR VCTS OVC025CB=

USA.gov is the U.S. government's official web portal to all federal, state and local government web resources and services.